sensor_id;sensor_type;location;lat;lon;timestamp;P1;durP1;ratioP1;P2;durP2;ratioP2
15915;SDS011;8057;47.830;-3.870;2023-04-03T08:08:57;7.77;;;2.80;;
15915;SDS011;8057;47.830;-3.870;2023-04-03T08:13:34;8.53;;;3.27;;
15915;SDS011;8057;47.830;-3.870;2023-04-03T08:17:51;9.23;;;2.73;;
15915;SDS011;8057;47.830;-3.870;2023-04-03T08:22:29;10.13;;;2.87;;
15915;SDS011;8057;47.830;-3.870;2023-04-03T08:36:25;6.30;;;2.73;;
15915;SDS011;8057;47.830;-3.870;2023-04-03T08:40:44;7.43;;;2.57;;
15915;SDS011;8057;47.830;-3.870;2023-04-03T08:44:54;6.93;;;3.03;;
15915;SDS011;8057;47.830;-3.870;2023-04-03T08:54:56;7.07;;;2.40;;
15915;SDS011;8057;47.830;-3.870;2023-04-03T08:59:12;8.77;;;2.67;;
15915;SDS011;8057;47.830;-3.870;2023-04-03T09:03:29;6.57;;;2.70;;
15915;SDS011;8057;47.830;-3.870;2023-04-03T09:07:43;6.33;;;2.87;;
15915;SDS011;8057;47.830;-3.870;2023-04-03T09:11:58;7.67;;;2.70;;
15915;SDS011;8057;47.830;-3.870;2023-04-03T09:16:21;10.03;;;2.47;;
15915;SDS011;8057;47.830;-3.870;2023-04-03T09:20:56;8.33;;;2.93;;
15915;SDS011;8057;47.830;-3.870;2023-04-03T09:25:18;5.97;;;2.70;;
15915;SDS011;8057;47.830;-3.870;2023-04-03T09:29:33;9.13;;;3.10;;
15915;SDS011;8057;47.830;-3.870;2023-04-03T09:33:48;9.37;;;2.70;;
15915;SDS011;8057;47.830;-3.870;2023-04-03T09:38:00;6.90;;;2.20;;
15915;SDS011;8057;47.830;-3.870;2023-04-03T09:42:22;6.77;;;2.40;;
15915;SDS011;8057;47.830;-3.870;2023-04-03T09:46:34;6.57;;;2.60;;
15915;SDS011;8057;47.830;-3.870;2023-04-03T09:50:57;5.77;;;2.37;;
15915;SDS011;8057;47.830;-3.870;2023-04-03T09:55:13;6.00;;;2.10;;
15915;SDS011;8057;47.830;-3.870;2023-04-03T09:59:24;7.30;;;2.60;;
15915;SDS011;8057;47.830;-3.870;2023-04-03T10:08:26;6.63;;;2.30;;
15915;SDS011;8057;47.830;-3.870;2023-04-03T10:13:03;5.73;;;2.43;;
15915;SDS011;8057;47.830;-3.870;2023-04-03T10:17:17;6.37;;;2.70;;
15915;SDS011;8057;47.830;-3.870;2023-04-03T10:21:35;8.30;;;2.40;;
15915;SDS011;8057;47.830;-3.870;2023-04-03T10:25:54;6.30;;;2.67;;
15915;SDS011;8057;47.830;-3.870;2023-04-03T10:30:17;5.10;;;2.50;;
15915;SDS011;8057;47.830;-3.870;2023-04-03T10:34:42;5.77;;;2.40;;
15915;SDS011;8057;47.830;-3.870;2023-04-03T10:39:14;6.40;;;2.30;;
15915;SDS011;8057;47.830;-3.870;2023-04-03T10:43:36;4.80;;;2.57;;
15915;SDS011;8057;47.830;-3.870;2023-04-03T10:48:06;6.10;;;2.47;;
15915;SDS011;8057;47.830;-3.870;2023-04-03T11:26:13;7.93;;;2.63;;
15915;SDS011;8057;47.830;-3.870;2023-04-03T11:30:57;6.10;;;2.47;;
15915;SDS011;8057;47.830;-3.870;2023-04-03T11:35:19;7.70;;;2.67;;
15915;SDS011;8057;47.830;-3.870;2023-04-03T11:39:29;6.50;;;2.70;;
15915;SDS011;8057;47.830;-3.870;2023-04-03T11:43:55;5.73;;;2.57;;
15915;SDS011;8057;47.830;-3.870;2023-04-03T11:48:06;3.93;;;2.63;;
15915;SDS011;8057;47.830;-3.870;2023-04-03T12:11:30;5.27;;;2.67;;
15915;SDS011;8057;47.830;-3.870;2023-04-03T12:24:57;6.30;;;2.50;;
15915;SDS011;8057;47.830;-3.870;2023-04-03T12:29:52;6.03;;;2.87;;
15915;SDS011;8057;47.830;-3.870;2023-04-03T12:34:26;6.80;;;3.20;;
15915;SDS011;8057;47.830;-3.870;2023-04-03T12:39:03;6.07;;;3.60;;
15915;SDS011;8057;47.830;-3.870;2023-04-03T12:43:30;4.80;;;2.30;;
15915;SDS011;8057;47.830;-3.870;2023-04-03T12:47:54;5.50;;;3.67;;
15915;SDS011;8057;47.830;-3.870;2023-04-03T12:52:16;6.10;;;3.67;;
15915;SDS011;8057;47.830;-3.870;2023-04-03T12:56:31;9.13;;;3.87;;
15915;SDS011;8057;47.830;-3.870;2023-04-03T13:00:41;4.17;;;3.57;;
15915;SDS011;8057;47.830;-3.870;2023-04-03T13:04:53;5.27;;;3.80;;
15915;SDS011;8057;47.830;-3.870;2023-04-03T13:09:17;8.40;;;4.50;;
15915;SDS011;8057;47.830;-3.870;2023-04-03T13:13:33;9.03;;;4.30;;
15915;SDS011;8057;47.830;-3.870;2023-04-03T13:17:43;7.87;;;3.90;;
15915;SDS011;8057;47.830;-3.870;2023-04-03T13:26:43;6.83;;;4.73;;
15915;SDS011;8057;47.830;-3.870;2023-04-03T13:31:15;5.73;;;3.90;;
15915;SDS011;8057;47.830;-3.870;2023-04-03T13:35:33;5.90;;;4.37;;
15915;SDS011;8057;47.830;-3.870;2023-04-03T13:40:02;7.10;;;4.77;;
15915;SDS011;8057;47.830;-3.870;2023-04-03T13:49:43;7.33;;;4.33;;
15915;SDS011;8057;47.830;-3.870;2023-04-03T13:58:32;7.73;;;5.00;;
15915;SDS011;8057;47.830;-3.870;2023-04-03T14:03:14;6.37;;;4.67;;
15915;SDS011;8057;47.830;-3.870;2023-04-03T14:27:01;8.43;;;5.10;;
15915;SDS011;8057;47.830;-3.870;2023-04-03T14:31:16;5.93;;;4.60;;
15915;SDS011;8057;47.830;-3.870;2023-04-03T14:35:44;8.17;;;5.27;;
15915;SDS011;8057;47.830;-3.870;2023-04-03T14:40:24;6.50;;;5.10;;
15915;SDS011;8057;47.830;-3.870;2023-04-03T14:44:59;6.33;;;5.23;;
15915;SDS011;8057;47.830;-3.870;2023-04-03T14:53:43;6.80;;;4.73;;
15915;SDS011;8057;47.830;-3.870;2023-04-03T14:57:54;8.90;;;5.60;;
15915;SDS011;8057;47.830;-3.870;2023-04-03T15:02:09;8.47;;;5.13;;
15915;SDS011;8057;47.830;-3.870;2023-04-03T15:06:31;10.80;;;5.77;;
15915;SDS011;8057;47.830;-3.870;2023-04-03T15:10:41;9.33;;;5.23;;
15915;SDS011;8057;47.830;-3.870;2023-04-03T15:14:51;5.53;;;4.87;;
15915;SDS011;8057;47.830;-3.870;2023-04-03T15:19:12;7.37;;;5.37;;
15915;SDS011;8057;47.830;-3.870;2023-04-03T15:23:39;5.53;;;4.77;;
15915;SDS011;8057;47.830;-3.870;2023-04-03T15:27:50;6.20;;;4.70;;
15915;SDS011;8057;47.830;-3.870;2023-04-03T15:32:31;6.00;;;5.07;;
15915;SDS011;8057;47.830;-3.870;2023-04-03T15:36:44;8.87;;;5.60;;
15915;SDS011;8057;47.830;-3.870;2023-04-03T15:40:54;6.07;;;5.47;;
15915;SDS011;8057;47.830;-3.870;2023-04-03T15:45:04;5.53;;;5.03;;
15915;SDS011;8057;47.830;-3.870;2023-04-03T15:49:14;5.57;;;5.00;;
15915;SDS011;8057;47.830;-3.870;2023-04-03T15:53:27;7.60;;;4.80;;
15915;SDS011;8057;47.830;-3.870;2023-04-03T15:57:41;7.10;;;5.40;;
15915;SDS011;8057;47.830;-3.870;2023-04-03T16:06:19;9.00;;;5.37;;
15915;SDS011;8057;47.830;-3.870;2023-04-03T16:10:54;7.27;;;5.57;;
15915;SDS011;8057;47.830;-3.870;2023-04-03T16:15:04;5.80;;;5.30;;
15915;SDS011;8057;47.830;-3.870;2023-04-03T16:19:18;6.83;;;5.60;;
15915;SDS011;8057;47.830;-3.870;2023-04-03T16:28:16;6.10;;;5.10;;
15915;SDS011;8057;47.830;-3.870;2023-04-03T16:32:42;6.43;;;5.20;;
15915;SDS011;8057;47.830;-3.870;2023-04-03T16:37:01;7.93;;;5.57;;
15915;SDS011;8057;47.830;-3.870;2023-04-03T16:46:17;6.93;;;6.10;;
15915;SDS011;8057;47.830;-3.870;2023-04-03T16:51:09;6.80;;;6.10;;
15915;SDS011;8057;47.830;-3.870;2023-04-03T16:56:29;6.87;;;5.77;;
15915;SDS011;8057;47.830;-3.870;2023-04-03T18:17:35;8.33;;;7.00;;
15915;SDS011;8057;47.830;-3.870;2023-04-03T18:22:01;7.33;;;6.57;;
15915;SDS011;8057;47.830;-3.870;2023-04-03T18:26:17;7.13;;;6.50;;
15915;SDS011;8057;47.830;-3.870;2023-04-03T18:30:34;7.87;;;7.07;;
15915;SDS011;8057;47.830;-3.870;2023-04-03T18:39:09;7.83;;;7.00;;
15915;SDS011;8057;47.830;-3.870;2023-04-03T18:43:24;6.57;;;5.97;;
15915;SDS011;8057;47.830;-3.870;2023-04-03T18:47:48;6.53;;;5.23;;
15915;SDS011;8057;47.830;-3.870;2023-04-03T18:52:02;6.27;;;5.67;;
15915;SDS011;8057;47.830;-3.870;2023-04-03T18:56:54;5.83;;;5.33;;
15915;SDS011;8057;47.830;-3.870;2023-04-03T19:06:03;8.47;;;7.67;;
15915;SDS011;8057;47.830;-3.870;2023-04-03T19:10:22;9.77;;;8.83;;
15915;SDS011;8057;47.830;-3.870;2023-04-03T19:14:34;10.67;;;8.13;;
15915;SDS011;8057;47.830;-3.870;2023-04-03T19:18:43;9.03;;;8.13;;
15915;SDS011;8057;47.830;-3.870;2023-04-03T19:22:53;8.33;;;7.53;;
15915;SDS011;8057;47.830;-3.870;2023-04-03T19:27:02;10.57;;;9.67;;
15915;SDS011;8057;47.830;-3.870;2023-04-03T19:31:14;9.33;;;8.43;;
15915;SDS011;8057;47.830;-3.870;2023-04-03T19:35:28;9.40;;;8.50;;
15915;SDS011;8057;47.830;-3.870;2023-04-03T19:39:38;8.10;;;7.30;;
15915;SDS011;8057;47.830;-3.870;2023-04-03T19:43:47;7.80;;;7.03;;
15915;SDS011;8057;47.830;-3.870;2023-04-03T19:47:59;8.57;;;7.87;;
15915;SDS011;8057;47.830;-3.870;2023-04-03T19:52:08;9.47;;;8.67;;
15915;SDS011;8057;47.830;-3.870;2023-04-03T19:56:17;10.13;;;9.13;;
15915;SDS011;8057;47.830;-3.870;2023-04-03T20:00:29;8.43;;;7.60;;
15915;SDS011;8057;47.830;-3.870;2023-04-03T20:04:40;10.93;;;9.80;;
15915;SDS011;8057;47.830;-3.870;2023-04-03T20:08:50;8.87;;;8.07;;
15915;SDS011;8057;47.830;-3.870;2023-04-03T20:12:59;8.33;;;7.63;;
15915;SDS011;8057;47.830;-3.870;2023-04-03T20:17:10;8.80;;;7.90;;
15915;SDS011;8057;47.830;-3.870;2023-04-03T20:21:25;8.60;;;7.87;;
15915;SDS011;8057;47.830;-3.870;2023-04-03T20:25:38;9.03;;;8.23;;
15915;SDS011;8057;47.830;-3.870;2023-04-03T20:30:10;9.87;;;8.97;;
15915;SDS011;8057;47.830;-3.870;2023-04-03T20:34:22;9.07;;;8.27;;
15915;SDS011;8057;47.830;-3.870;2023-04-03T20:38:33;11.03;;;10.03;;
15915;SDS011;8057;47.830;-3.870;2023-04-03T20:42:42;9.43;;;8.43;;
15915;SDS011;8057;47.830;-3.870;2023-04-03T20:46:51;9.93;;;9.13;;
15915;SDS011;8057;47.830;-3.870;2023-04-03T20:51:06;9.40;;;8.50;;
15915;SDS011;8057;47.830;-3.870;2023-04-03T20:55:18;10.70;;;9.70;;
15915;SDS011;8057;47.830;-3.870;2023-04-03T20:59:28;10.70;;;9.60;;
15915;SDS011;8057;47.830;-3.870;2023-04-03T21:03:37;10.23;;;9.33;;
15915;SDS011;8057;47.830;-3.870;2023-04-03T21:21:29;14.50;;;12.93;;
15915;SDS011;8057;47.830;-3.870;2023-04-03T21:25:43;13.10;;;11.80;;
15915;SDS011;8057;47.830;-3.870;2023-04-03T21:29:52;12.77;;;11.53;;
15915;SDS011;8057;47.830;-3.870;2023-04-03T21:34:02;13.90;;;12.60;;
15915;SDS011;8057;47.830;-3.870;2023-04-03T21:38:13;15.03;;;13.50;;
15915;SDS011;8057;47.830;-3.870;2023-04-03T21:42:23;15.03;;;13.37;;
15915;SDS011;8057;47.830;-3.870;2023-04-03T21:46:32;13.53;;;12.13;;
15915;SDS011;8057;47.830;-3.870;2023-04-03T21:50:57;10.27;;;9.37;;
15915;SDS011;8057;47.830;-3.870;2023-04-03T21:56:17;13.97;;;12.53;;
15915;SDS011;8057;47.830;-3.870;2023-04-03T22:06:28;13.67;;;12.37;;
